createdAt,value
2022-11-03T00:01:39.478Z,87962.84
2022-11-03T00:04:09.436Z,87957.53
2022-11-03T00:06:38.292Z,87953.03
2022-11-03T00:09:10.063Z,87949.22
2022-11-03T00:11:40.529Z,87940.59
2022-11-03T00:14:09.500Z,87951.44
2022-11-03T00:16:37.994Z,87953.25
2022-11-03T00:19:06.254Z,87951.75
2022-11-03T00:21:33.895Z,87950.09
2022-11-03T00:24:02.137Z,87951.50
2022-11-03T00:26:32.474Z,87952.59
2022-11-03T00:29:06.366Z,87951.00
2022-11-03T00:31:37.230Z,87947.56
2022-11-03T00:34:06.044Z,87955.03
2022-11-03T00:36:40.491Z,87949.69
2022-11-03T00:39:08.395Z,87953.03
2022-11-03T00:41:35.657Z,87946.59
2022-11-03T00:44:02.879Z,87941.25
2022-11-03T00:46:30.504Z,87939.34
2022-11-03T00:48:58.235Z,87942.31
2022-11-03T00:51:28.445Z,87949.44
2022-11-03T00:53:59.081Z,87941.84
2022-11-03T00:56:36.767Z,87936.91
2022-11-03T00:59:06.477Z,87936.91
2022-11-03T01:01:46.519Z,87935.41
2022-11-03T01:04:17.501Z,87928.13
2022-11-03T01:06:51.311Z,87928.91
2022-11-03T01:09:26.064Z,87934.06
2022-11-03T01:12:05.907Z,87931.00
2022-11-03T01:14:36.711Z,87928.69
2022-11-03T01:17:30.202Z,87931.66
2022-11-03T01:19:57.331Z,87922.59
2022-11-03T01:22:25.006Z,87931.56
2022-11-03T01:24:52.276Z,87932.28
2022-11-03T01:27:21.736Z,87928.13
2022-11-03T01:29:49.000Z,87926.63
2022-11-03T01:32:16.323Z,87926.53
2022-11-03T01:34:43.717Z,87922.72
2022-11-03T01:37:10.939Z,87923.09
2022-11-03T01:39:38.105Z,87916.66
2022-11-03T01:42:05.649Z,87910.56
2022-11-03T01:44:37.293Z,87903.38
2022-11-03T01:47:30.799Z,87896.88
2022-11-03T01:50:24.424Z,87895.03
2022-11-03T01:52:58.583Z,87904.66
2022-11-03T01:55:33.696Z,87894.03
2022-11-03T01:58:07.632Z,87894.78
2022-11-03T02:00:36.121Z,87893.59
2022-11-03T02:03:04.422Z,87890.56
2022-11-03T02:05:31.935Z,87886.84
2022-11-03T02:08:11.047Z,87888.69
2022-11-03T02:10:38.866Z,87880.06
2022-11-03T02:13:21.821Z,87883.03
2022-11-03T02:15:58.437Z,87871.44
2022-11-03T02:18:33.001Z,87870.25
2022-11-03T02:21:23.011Z,87866.94
2022-11-03T02:24:24.180Z,87856.44
2022-11-03T02:26:56.572Z,87851.59
2022-11-03T02:29:23.786Z,87849.41
2022-11-03T02:32:23.013Z,87855.06
2022-11-03T02:35:05.225Z,87845.38
2022-11-03T02:37:40.840Z,87844.69
2022-11-03T02:40:19.089Z,87842.13
2022-11-03T02:42:52.569Z,87838.81
2022-11-03T02:45:25.258Z,87833.97
2022-11-03T02:47:58.924Z,87831.41
2022-11-03T02:50:32.433Z,87836.75
2022-11-03T02:53:00.732Z,87823.19
2022-11-03T02:55:55.649Z,87829.94
2022-11-03T02:58:54.507Z,87823.88
2022-11-03T03:01:33.512Z,87827.69
2022-11-03T03:04:13.537Z,87814.13
2022-11-03T03:07:00.774Z,87816.81
2022-11-03T03:09:58.346Z,87810.78
2022-11-03T03:12:27.969Z,87816.91
2022-11-03T03:14:59.552Z,87813.09
2022-11-03T03:17:38.431Z,87815.00
2022-11-03T03:20:20.050Z,87807.13
2022-11-03T03:23:00.888Z,87809.06
2022-11-03T03:25:41.438Z,87814.31
2022-11-03T03:28:35.300Z,87804.50
2022-11-03T03:31:09.442Z,87806.03
2022-11-03T03:33:41.931Z,87805.25
2022-11-03T03:36:18.895Z,87800.09
2022-11-03T03:38:55.724Z,87803.44
2022-11-03T03:41:26.796Z,87805.34
2022-11-03T03:44:02.782Z,87801.94
2022-11-03T03:46:38.607Z,87809.88
2022-11-03T03:49:07.175Z,87813.28
2022-11-03T03:51:36.560Z,87806.94
2022-11-03T03:54:03.894Z,87809.56
2022-11-03T03:56:48.563Z,87808.44
2022-11-03T03:59:15.838Z,87813.31
2022-11-03T04:01:43.333Z,87820.53
2022-11-03T04:04:10.613Z,87812.28
2022-11-03T04:06:37.720Z,87818.31
2022-11-03T04:09:04.948Z,87814.56
2022-11-03T04:11:32.184Z,87810.81
2022-11-03T04:13:59.479Z,87816.09
2022-11-03T04:16:26.816Z,87815.38
2022-11-03T04:18:54.056Z,87818.84
2022-11-03T04:21:21.235Z,87819.25
2022-11-03T04:23:48.571Z,87814.41
2022-11-03T04:26:19.067Z,87809.56
2022-11-03T04:28:46.804Z,87806.19
2022-11-03T04:31:17.233Z,87806.59
2022-11-03T04:33:45.216Z,87811.16
2022-11-03T04:36:26.359Z,87800.63
2022-11-03T04:38:53.528Z,87800.91
2022-11-03T04:41:31.306Z,87805.53
2022-11-03T04:43:58.858Z,87801.03
2022-11-03T04:46:29.838Z,87806.31
2022-11-03T04:49:01.991Z,87793.84
2022-11-03T04:51:34.779Z,87802.09
2022-11-03T04:54:18.420Z,87797.53
2022-11-03T04:56:45.807Z,87801.69
2022-11-03T04:59:16.195Z,87791.56
2022-11-03T05:01:46.104Z,87797.56
2022-11-03T05:04:18.912Z,87791.56
2022-11-03T05:06:52.463Z,87791.16
2022-11-03T05:09:30.099Z,87784.38
2022-11-03T05:11:57.637Z,87788.59
2022-11-03T05:14:32.689Z,87787.06
2022-11-03T05:17:02.986Z,87791.22
2022-11-03T05:19:41.231Z,87787.78
2022-11-03T05:22:17.469Z,87786.31
2022-11-03T05:24:44.981Z,87788.94
2022-11-03T05:27:30.857Z,87775.81
2022-11-03T05:30:01.011Z,87782.56
2022-11-03T05:32:33.432Z,87775.44
2022-11-03T05:35:01.330Z,87777.31
2022-11-03T05:37:36.111Z,87773.59
2022-11-03T05:40:24.345Z,87776.25
2022-11-03T05:42:59.044Z,87779.16
2022-11-03T05:45:34.971Z,87776.53
2022-11-03T05:48:11.599Z,87775.09
2022-11-03T05:50:42.623Z,87766.78
2022-11-03T05:53:27.561Z,87767.91
2022-11-03T05:55:58.733Z,87766.03
2022-11-03T05:58:34.842Z,87766.03
2022-11-03T06:01:21.790Z,87772.78
2022-11-03T06:03:49.274Z,87772.41
2022-11-03T06:06:28.017Z,87766.38
2022-11-03T06:09:01.914Z,87779.53
2022-11-03T06:11:37.127Z,87776.50
2022-11-03T06:14:26.397Z,87781.00
2022-11-03T06:17:02.091Z,87768.59
2022-11-03T06:19:37.624Z,87766.38
2022-11-03T06:22:35.263Z,87770.53
2022-11-03T06:25:33.014Z,87767.56
2022-11-03T06:28:05.465Z,87771.72
2022-11-03T06:30:39.168Z,87775.09
2022-11-03T06:33:28.558Z,87770.94
2022-11-03T06:36:18.733Z,87768.66
2022-11-03T06:39:01.650Z,87772.47
2022-11-03T06:41:36.096Z,87771.34
2022-11-03T06:44:22.182Z,87768.31
2022-11-03T06:46:49.400Z,87766.09
2022-11-03T06:49:43.358Z,87772.13
2022-11-03T06:52:27.018Z,87767.97
2022-11-03T06:55:12.186Z,87773.22
2022-11-03T06:57:46.937Z,87768.72
2022-11-03T07:00:36.208Z,87767.19
2022-11-03T07:03:29.878Z,87774.38
2022-11-03T07:06:13.619Z,87783.81
2022-11-03T07:08:51.642Z,87777.06
2022-11-03T07:11:29.939Z,87782.00
2022-11-03T07:14:17.870Z,87773.81
2022-11-03T07:16:54.473Z,87776.09
2022-11-03T07:19:34.862Z,87778.75
2022-11-03T07:22:11.227Z,87778.41
2022-11-03T07:24:44.431Z,87781.88
2022-11-03T07:27:27.699Z,87780.44
2022-11-03T07:30:05.991Z,87780.13
2022-11-03T07:32:35.188Z,87783.59
2022-11-03T07:35:11.241Z,87778.03
2022-11-03T07:37:38.456Z,87773.94
2022-11-03T07:40:13.407Z,87786.44
2022-11-03T07:42:40.631Z,87780.13
2022-11-03T07:45:49.610Z,87777.94
2022-11-03T07:48:33.130Z,87781.75
2022-11-03T07:51:26.405Z,87777.69
2022-11-03T07:54:03.405Z,87764.22
2022-11-03T07:56:45.061Z,87759.78
2022-11-03T07:59:29.189Z,87750.50
2022-11-03T08:01:58.205Z,87758.47
2022-11-03T08:04:33.634Z,87756.31
2022-11-03T08:07:01.206Z,87753.78
2022-11-03T08:09:28.382Z,87743.72
2022-11-03T08:11:55.487Z,87743.44
2022-11-03T08:14:22.868Z,87737.53
2022-11-03T08:16:49.998Z,87732.66
2022-11-03T08:19:17.163Z,87731.19
2022-11-03T08:21:44.297Z,87728.97
2022-11-03T08:24:11.482Z,87729.41
2022-11-03T08:26:38.643Z,87733.28
2022-11-03T08:29:05.778Z,87734.47
2022-11-03T08:31:34.120Z,87718.34
2022-11-03T08:34:01.429Z,87713.53
2022-11-03T08:36:28.582Z,87715.91
2022-11-03T08:38:55.745Z,87709.97
2022-11-03T08:41:23.030Z,87710.44
2022-11-03T08:43:50.215Z,87706.34
2022-11-03T08:46:18.466Z,87703.41
2022-11-03T08:48:46.882Z,87694.44
2022-11-03T08:51:15.770Z,87702.03
2022-11-03T08:53:43.874Z,87695.66
2022-11-03T08:56:15.072Z,87678.34
2022-11-03T08:58:44.355Z,87691.16
2022-11-03T09:01:12.502Z,87681.38
2022-11-03T09:03:40.998Z,87679.88
2022-11-03T09:06:10.299Z,87679.50
2022-11-03T09:11:24.796Z,87672.00
2022-11-03T09:13:51.927Z,87661.06
2022-11-03T09:16:21.195Z,87659.22
2022-11-03T09:18:48.640Z,87647.84
2022-11-03T09:21:15.798Z,87653.53
2022-11-03T09:23:42.965Z,87647.16
2022-11-03T09:26:10.244Z,87644.91
2022-11-03T09:28:37.323Z,87644.97
2022-11-03T09:31:04.746Z,87638.94
2022-11-03T09:33:31.981Z,87638.97
2022-11-03T09:35:59.157Z,87632.94
2022-11-03T09:38:26.464Z,87634.88
2022-11-03T09:40:55.010Z,87624.66
2022-11-03T09:43:22.268Z,87631.50
2022-11-03T09:45:49.587Z,87625.06
2022-11-03T09:48:17.092Z,87622.06
2022-11-03T09:50:44.682Z,87621.34
2022-11-03T09:53:12.889Z,87612.63
2022-11-03T09:55:40.518Z,87608.84
2022-11-03T09:58:17.616Z,87612.28
2022-11-03T10:00:45.947Z,87608.88
2022-11-03T10:03:17.305Z,87602.06
2022-11-03T10:05:46.172Z,87607.72
2022-11-03T10:08:27.383Z,87596.75
2022-11-03T10:10:55.721Z,87598.63
2022-11-03T10:13:39.270Z,87597.09
2022-11-03T10:16:15.019Z,87582.72
2022-11-03T10:18:45.750Z,87584.59
2022-11-03T10:21:31.602Z,87583.09
2022-11-03T10:23:58.721Z,87580.06
2022-11-03T10:26:26.123Z,87584.63
2022-11-03T10:29:07.665Z,87576.28
2022-11-03T10:31:42.343Z,87567.19
2022-11-03T10:34:42.190Z,87556.66
2022-11-03T10:37:17.985Z,87551.34
2022-11-03T10:39:45.602Z,87542.25
2022-11-03T10:42:33.770Z,87537.72
2022-11-03T10:45:20.027Z,87523.72
2022-11-03T10:48:06.588Z,87521.06
2022-11-03T10:50:33.823Z,87517.28
2022-11-03T10:53:01.323Z,87511.22
2022-11-03T10:55:28.868Z,87514.59
2022-11-03T10:57:58.364Z,87521.78
2022-11-03T11:00:25.825Z,87511.97
2022-11-03T11:03:00.783Z,87511.56
2022-11-03T11:05:28.291Z,87509.66
2022-11-03T11:07:56.159Z,87506.97
2022-11-03T11:10:31.260Z,87501.25
2022-11-03T11:13:16.527Z,87495.91
2022-11-03T11:15:47.401Z,87492.13
2022-11-03T11:18:29.837Z,87491.34
2022-11-03T11:21:23.253Z,87479.63
2022-11-03T11:23:50.736Z,87480.34
2022-11-03T11:26:33.358Z,87469.75
2022-11-03T11:29:23.695Z,87465.56
2022-11-03T11:31:50.898Z,87459.94
2022-11-03T11:34:20.782Z,87454.59
2022-11-03T11:36:56.880Z,87457.63
2022-11-03T11:39:24.032Z,87449.66
2022-11-03T11:42:20.247Z,87459.56
2022-11-03T11:44:57.432Z,87455.41
2022-11-03T11:47:32.340Z,87459.19
2022-11-03T11:50:06.109Z,87463.34
2022-11-03T11:52:51.144Z,87462.97
2022-11-03T11:55:32.431Z,87458.75
2022-11-03T11:58:02.491Z,87446.69
2022-11-03T12:00:35.267Z,87441.41
2022-11-03T12:03:06.710Z,87433.47
2022-11-03T12:05:35.986Z,87433.84
2022-11-03T12:08:17.741Z,87430.81
2022-11-03T12:11:13.047Z,87436.09
2022-11-03T12:13:51.326Z,87430.41
2022-11-03T12:16:36.137Z,87416.41
2022-11-03T12:19:41.716Z,87419.00
2022-11-03T12:22:24.110Z,87413.28
2022-11-03T12:25:01.488Z,87408.66
2022-11-03T12:27:28.622Z,87402.81
2022-11-03T12:30:01.626Z,87398.88
2022-11-03T12:32:33.899Z,87405.19
2022-11-03T12:35:08.054Z,87402.56
2022-11-03T12:37:36.075Z,87393.69
2022-11-03T12:40:03.740Z,87389.91
2022-11-03T12:42:30.818Z,87382.41
2022-11-03T12:44:58.549Z,87369.66
2022-11-03T12:47:25.784Z,87377.63
2022-11-03T12:49:52.979Z,87376.28
2022-11-03T12:52:20.137Z,87368.03
2022-11-03T12:54:47.444Z,87388.56
2022-11-03T12:57:14.614Z,87379.94
2022-11-03T12:59:41.855Z,87377.38
2022-11-03T13:02:11.223Z,87371.41
2022-11-03T13:04:38.800Z,87386.56
2022-11-03T13:07:05.926Z,87388.88
2022-11-03T13:09:33.117Z,87390.78
2022-11-03T13:12:00.455Z,87388.56
2022-11-03T13:14:27.631Z,87390.41
2022-11-03T13:16:54.728Z,87385.50
2022-11-03T13:19:21.917Z,87376.44
2022-11-03T13:21:49.043Z,87370.38
2022-11-03T13:27:04.996Z,87357.16
2022-11-03T13:29:35.619Z,87369.28
